sensor_id;sensor_type;location;lat;lon;timestamp;P1;durP1;ratioP1;P2;durP2;ratioP2
84009;SDS011;74073;51.482;4.302;2024-02-23T00:02:10;2.55;;;0.77;;
84009;SDS011;74073;51.482;4.302;2024-02-23T00:04:36;2.72;;;0.30;;
84009;SDS011;74073;51.482;4.302;2024-02-23T00:07:03;3.28;;;0.20;;
84009;SDS011;74073;51.482;4.302;2024-02-23T00:09:30;1.80;;;0.10;;
84009;SDS011;74073;51.482;4.302;2024-02-23T00:11:56;3.45;;;0.22;;
84009;SDS011;74073;51.482;4.302;2024-02-23T00:14:22;2.72;;;0.10;;
84009;SDS011;74073;51.482;4.302;2024-02-23T00:16:49;3.22;;;0.22;;
84009;SDS011;74073;51.482;4.302;2024-02-23T00:19:16;2.72;;;0.13;;
84009;SDS011;74073;51.482;4.302;2024-02-23T00:21:44;2.97;;;0.47;;
84009;SDS011;74073;51.482;4.302;2024-02-23T00:24:16;3.30;;;0.10;;
84009;SDS011;74073;51.482;4.302;2024-02-23T00:26:46;3.67;;;0.20;;
84009;SDS011;74073;51.482;4.302;2024-02-23T00:29:12;2.40;;;0.30;;
84009;SDS011;74073;51.482;4.302;2024-02-23T00:31:39;1.88;;;0.10;;
84009;SDS011;74073;51.482;4.302;2024-02-23T00:34:14;2.28;;;0.20;;
84009;SDS011;74073;51.482;4.302;2024-02-23T00:36:41;2.67;;;0.10;;
84009;SDS011;74073;51.482;4.302;2024-02-23T00:39:10;2.35;;;0.35;;
84009;SDS011;74073;51.482;4.302;2024-02-23T00:41:36;3.10;;;0.10;;
84009;SDS011;74073;51.482;4.302;2024-02-23T00:44:03;2.13;;;0.15;;
84009;SDS011;74073;51.482;4.302;2024-02-23T00:46:38;1.10;;;0.10;;
84009;SDS011;74073;51.482;4.302;2024-02-23T00:49:12;2.80;;;0.13;;
84009;SDS011;74073;51.482;4.302;2024-02-23T00:51:39;3.28;;;0.10;;
84009;SDS011;74073;51.482;4.302;2024-02-23T00:54:06;4.38;;;0.10;;
84009;SDS011;74073;51.482;4.302;2024-02-23T00:56:34;1.02;;;0.20;;
84009;SDS011;74073;51.482;4.302;2024-02-23T00:59:00;1.73;;;0.10;;
84009;SDS011;74073;51.482;4.302;2024-02-23T01:01:27;3.28;;;0.10;;
84009;SDS011;74073;51.482;4.302;2024-02-23T01:03:53;1.23;;;0.10;;
84009;SDS011;74073;51.482;4.302;2024-02-23T01:06:20;2.05;;;0.47;;
84009;SDS011;74073;51.482;4.302;2024-02-23T01:08:46;1.80;;;0.15;;
84009;SDS011;74073;51.482;4.302;2024-02-23T01:11:12;0.65;;;0.05;;
84009;SDS011;74073;51.482;4.302;2024-02-23T01:13:39;4.20;;;0.20;;
84009;SDS011;74073;51.482;4.302;2024-02-23T01:16:05;4.70;;;0.30;;
84009;SDS011;74073;51.482;4.302;2024-02-23T01:18:32;1.33;;;0.25;;
84009;SDS011;74073;51.482;4.302;2024-02-23T01:20:58;2.13;;;0.20;;
84009;SDS011;74073;51.482;4.302;2024-02-23T01:23:25;1.35;;;0.20;;
84009;SDS011;74073;51.482;4.302;2024-02-23T01:25:52;5.22;;;0.20;;
84009;SDS011;74073;51.482;4.302;2024-02-23T01:28:18;2.45;;;0.32;;
84009;SDS011;74073;51.482;4.302;2024-02-23T01:30:45;1.45;;;0.10;;
84009;SDS011;74073;51.482;4.302;2024-02-23T01:33:11;3.53;;;0.20;;
84009;SDS011;74073;51.482;4.302;2024-02-23T01:35:37;2.28;;;0.22;;
84009;SDS011;74073;51.482;4.302;2024-02-23T01:38:05;2.70;;;0.22;;
84009;SDS011;74073;51.482;4.302;2024-02-23T01:40:31;2.08;;;0.43;;
84009;SDS011;74073;51.482;4.302;2024-02-23T01:43:04;1.33;;;0.10;;
84009;SDS011;74073;51.482;4.302;2024-02-23T01:45:30;3.25;;;0.30;;
84009;SDS011;74073;51.482;4.302;2024-02-23T01:48:00;1.55;;;0.10;;
84009;SDS011;74073;51.482;4.302;2024-02-23T01:50:27;2.25;;;0.30;;
84009;SDS011;74073;51.482;4.302;2024-02-23T01:52:54;2.78;;;0.10;;
84009;SDS011;74073;51.482;4.302;2024-02-23T01:55:22;3.88;;;0.40;;
84009;SDS011;74073;51.482;4.302;2024-02-23T01:57:49;1.50;;;0.10;;
84009;SDS011;74073;51.482;4.302;2024-02-23T02:00:17;1.42;;;0.20;;
84009;SDS011;74073;51.482;4.302;2024-02-23T02:02:44;3.78;;;0.17;;
84009;SDS011;74073;51.482;4.302;2024-02-23T02:05:10;1.88;;;0.35;;
84009;SDS011;74073;51.482;4.302;2024-02-23T02:07:37;2.70;;;0.20;;
84009;SDS011;74073;51.482;4.302;2024-02-23T02:10:04;2.60;;;0.63;;
84009;SDS011;74073;51.482;4.302;2024-02-23T02:12:33;2.20;;;0.22;;
84009;SDS011;74073;51.482;4.302;2024-02-23T02:14:59;3.90;;;0.10;;
84009;SDS011;74073;51.482;4.302;2024-02-23T02:17:29;2.92;;;0.10;;
84009;SDS011;74073;51.482;4.302;2024-02-23T02:19:56;2.65;;;0.15;;
84009;SDS011;74073;51.482;4.302;2024-02-23T02:22:24;1.23;;;0.43;;
84009;SDS011;74073;51.482;4.302;2024-02-23T02:24:51;1.02;;;0.05;;
84009;SDS011;74073;51.482;4.302;2024-02-23T02:27:17;2.05;;;0.35;;
84009;SDS011;74073;51.482;4.302;2024-02-23T02:29:43;1.30;;;0.30;;
84009;SDS011;74073;51.482;4.302;2024-02-23T02:32:13;2.05;;;0.20;;
84009;SDS011;74073;51.482;4.302;2024-02-23T02:34:39;2.50;;;0.13;;
84009;SDS011;74073;51.482;4.302;2024-02-23T02:37:06;1.95;;;0.20;;
84009;SDS011;74073;51.482;4.302;2024-02-23T02:39:34;2.20;;;0.30;;
84009;SDS011;74073;51.482;4.302;2024-02-23T02:42:00;4.57;;;0.22;;
84009;SDS011;74073;51.482;4.302;2024-02-23T02:44:29;3.60;;;0.17;;
84009;SDS011;74073;51.482;4.302;2024-02-23T02:46:59;1.52;;;0.10;;
84009;SDS011;74073;51.482;4.302;2024-02-23T02:49:25;1.42;;;0.10;;
84009;SDS011;74073;51.482;4.302;2024-02-23T02:51:52;0.95;;;0.10;;
84009;SDS011;74073;51.482;4.302;2024-02-23T02:54:18;2.58;;;0.20;;
84009;SDS011;74073;51.482;4.302;2024-02-23T02:56:47;1.95;;;0.10;;
84009;SDS011;74073;51.482;4.302;2024-02-23T02:59:15;2.58;;;0.38;;
84009;SDS011;74073;51.482;4.302;2024-02-23T03:01:43;3.58;;;0.52;;
84009;SDS011;74073;51.482;4.302;2024-02-23T03:04:11;2.50;;;0.28;;
84009;SDS011;74073;51.482;4.302;2024-02-23T03:06:37;3.60;;;0.40;;
84009;SDS011;74073;51.482;4.302;2024-02-23T03:09:03;1.95;;;0.20;;
84009;SDS011;74073;51.482;4.302;2024-02-23T03:11:30;2.38;;;0.10;;
84009;SDS011;74073;51.482;4.302;2024-02-23T03:13:56;2.13;;;0.20;;
84009;SDS011;74073;51.482;4.302;2024-02-23T03:16:23;3.03;;;0.10;;
84009;SDS011;74073;51.482;4.302;2024-02-23T03:18:51;3.90;;;0.10;;
84009;SDS011;74073;51.482;4.302;2024-02-23T03:21:19;1.23;;;0.00;;
84009;SDS011;74073;51.482;4.302;2024-02-23T03:23:46;2.67;;;0.10;;
84009;SDS011;74073;51.482;4.302;2024-02-23T03:26:13;2.95;;;0.15;;
84009;SDS011;74073;51.482;4.302;2024-02-23T03:28:42;3.25;;;0.40;;
84009;SDS011;74073;51.482;4.302;2024-02-23T03:31:08;1.83;;;0.20;;
84009;SDS011;74073;51.482;4.302;2024-02-23T03:33:35;1.85;;;0.10;;
84009;SDS011;74073;51.482;4.302;2024-02-23T03:36:02;1.77;;;0.08;;
84009;SDS011;74073;51.482;4.302;2024-02-23T03:38:29;2.08;;;0.20;;
84009;SDS011;74073;51.482;4.302;2024-02-23T03:40:56;3.55;;;0.32;;
84009;SDS011;74073;51.482;4.302;2024-02-23T03:43:22;3.13;;;0.10;;
84009;SDS011;74073;51.482;4.302;2024-02-23T03:45:52;1.92;;;0.10;;
84009;SDS011;74073;51.482;4.302;2024-02-23T03:48:18;2.15;;;0.00;;
84009;SDS011;74073;51.482;4.302;2024-02-23T03:50:45;1.73;;;0.13;;
84009;SDS011;74073;51.482;4.302;2024-02-23T03:53:12;1.85;;;0.13;;
84009;SDS011;74073;51.482;4.302;2024-02-23T03:55:38;1.75;;;0.10;;
84009;SDS011;74073;51.482;4.302;2024-02-23T03:58:05;1.67;;;0.10;;
84009;SDS011;74073;51.482;4.302;2024-02-23T04:00:31;1.85;;;0.20;;
84009;SDS011;74073;51.482;4.302;2024-02-23T04:02:58;1.80;;;0.10;;
84009;SDS011;74073;51.482;4.302;2024-02-23T04:05:24;1.48;;;0.20;;
84009;SDS011;74073;51.482;4.302;2024-02-23T04:07:50;3.00;;;0.22;;
84009;SDS011;74073;51.482;4.302;2024-02-23T04:10:17;2.33;;;0.10;;
84009;SDS011;74073;51.482;4.302;2024-02-23T04:12:46;2.15;;;0.30;;
84009;SDS011;74073;51.482;4.302;2024-02-23T04:15:12;2.50;;;0.10;;
84009;SDS011;74073;51.482;4.302;2024-02-23T04:17:39;1.13;;;0.17;;
84009;SDS011;74073;51.482;4.302;2024-02-23T04:20:06;3.15;;;0.20;;
84009;SDS011;74073;51.482;4.302;2024-02-23T04:22:35;2.30;;;0.32;;
84009;SDS011;74073;51.482;4.302;2024-02-23T04:25:01;1.95;;;0.13;;
84009;SDS011;74073;51.482;4.302;2024-02-23T04:27:28;2.58;;;0.10;;
84009;SDS011;74073;51.482;4.302;2024-02-23T04:29:55;2.97;;;0.20;;
84009;SDS011;74073;51.482;4.302;2024-02-23T04:32:21;1.05;;;0.00;;
84009;SDS011;74073;51.482;4.302;2024-02-23T04:34:48;3.58;;;0.10;;
84009;SDS011;74073;51.482;4.302;2024-02-23T04:37:15;3.08;;;0.15;;
84009;SDS011;74073;51.482;4.302;2024-02-23T04:39:43;1.55;;;0.10;;
84009;SDS011;74073;51.482;4.302;2024-02-23T04:42:10;1.38;;;0.30;;
84009;SDS011;74073;51.482;4.302;2024-02-23T04:44:36;1.30;;;0.10;;
84009;SDS011;74073;51.482;4.302;2024-02-23T04:47:04;1.67;;;0.10;;
84009;SDS011;74073;51.482;4.302;2024-02-23T04:49:31;2.58;;;0.10;;
84009;SDS011;74073;51.482;4.302;2024-02-23T04:51:58;2.90;;;0.10;;
84009;SDS011;74073;51.482;4.302;2024-02-23T04:54:24;2.80;;;0.30;;
84009;SDS011;74073;51.482;4.302;2024-02-23T04:56:50;1.60;;;0.30;;
84009;SDS011;74073;51.482;4.302;2024-02-23T04:59:17;0.93;;;0.15;;
84009;SDS011;74073;51.482;4.302;2024-02-23T05:01:43;1.42;;;0.10;;
84009;SDS011;74073;51.482;4.302;2024-02-23T05:04:10;1.88;;;0.13;;
84009;SDS011;74073;51.482;4.302;2024-02-23T05:06:36;1.60;;;0.10;;
84009;SDS011;74073;51.482;4.302;2024-02-23T05:09:03;1.98;;;0.20;;
84009;SDS011;74073;51.482;4.302;2024-02-23T05:11:31;2.13;;;0.20;;
84009;SDS011;74073;51.482;4.302;2024-02-23T05:13:57;2.30;;;0.10;;
84009;SDS011;74073;51.482;4.302;2024-02-23T05:16:24;2.05;;;0.20;;
84009;SDS011;74073;51.482;4.302;2024-02-23T05:18:50;1.48;;;0.10;;
84009;SDS011;74073;51.482;4.302;2024-02-23T05:21:17;1.20;;;0.10;;
84009;SDS011;74073;51.482;4.302;2024-02-23T05:23:46;3.05;;;0.40;;
84009;SDS011;74073;51.482;4.302;2024-02-23T05:26:13;2.15;;;0.30;;
84009;SDS011;74073;51.482;4.302;2024-02-23T05:28:39;1.70;;;0.10;;
84009;SDS011;74073;51.482;4.302;2024-02-23T05:31:05;1.02;;;0.10;;
84009;SDS011;74073;51.482;4.302;2024-02-23T05:33:32;3.35;;;0.20;;
84009;SDS011;74073;51.482;4.302;2024-02-23T05:35:59;2.53;;;0.20;;
84009;SDS011;74073;51.482;4.302;2024-02-23T05:38:25;2.15;;;0.20;;
84009;SDS011;74073;51.482;4.302;2024-02-23T05:40:51;1.90;;;0.10;;
84009;SDS011;74073;51.482;4.302;2024-02-23T05:43:18;1.42;;;0.20;;
84009;SDS011;74073;51.482;4.302;2024-02-23T05:45:44;1.80;;;0.28;;
84009;SDS011;74073;51.482;4.302;2024-02-23T05:48:10;1.95;;;0.10;;
84009;SDS011;74073;51.482;4.302;2024-02-23T05:50:37;4.32;;;0.50;;
84009;SDS011;74073;51.482;4.302;2024-02-23T05:53:03;1.35;;;0.10;;
84009;SDS011;74073;51.482;4.302;2024-02-23T05:55:30;1.98;;;0.10;;
84009;SDS011;74073;51.482;4.302;2024-02-23T05:57:56;1.55;;;0.22;;
84009;SDS011;74073;51.482;4.302;2024-02-23T06:00:22;1.92;;;0.10;;
84009;SDS011;74073;51.482;4.302;2024-02-23T06:02:48;3.55;;;0.30;;
84009;SDS011;74073;51.482;4.302;2024-02-23T06:05:15;2.63;;;0.10;;
84009;SDS011;74073;51.482;4.302;2024-02-23T06:07:42;2.70;;;0.45;;
84009;SDS011;74073;51.482;4.302;2024-02-23T06:10:08;1.40;;;0.20;;
84009;SDS011;74073;51.482;4.302;2024-02-23T06:12:35;3.63;;;0.10;;
84009;SDS011;74073;51.482;4.302;2024-02-23T06:15:03;3.65;;;0.10;;
84009;SDS011;74073;51.482;4.302;2024-02-23T06:17:31;2.63;;;0.22;;
84009;SDS011;74073;51.482;4.302;2024-02-23T06:19:58;1.88;;;0.13;;
84009;SDS011;74073;51.482;4.302;2024-02-23T06:22:24;3.08;;;0.10;;
84009;SDS011;74073;51.482;4.302;2024-02-23T06:24:51;3.28;;;0.28;;
84009;SDS011;74073;51.482;4.302;2024-02-23T06:27:17;1.40;;;0.10;;
84009;SDS011;74073;51.482;4.302;2024-02-23T06:29:43;3.83;;;0.20;;
84009;SDS011;74073;51.482;4.302;2024-02-23T06:32:10;1.92;;;0.10;;
84009;SDS011;74073;51.482;4.302;2024-02-23T06:34:36;2.53;;;0.20;;
84009;SDS011;74073;51.482;4.302;2024-02-23T06:37:03;4.65;;;0.20;;
84009;SDS011;74073;51.482;4.302;2024-02-23T06:39:29;3.17;;;0.30;;
84009;SDS011;74073;51.482;4.302;2024-02-23T06:41:55;4.78;;;0.10;;
84009;SDS011;74073;51.482;4.302;2024-02-23T06:44:26;4.32;;;0.13;;
84009;SDS011;74073;51.482;4.302;2024-02-23T06:46:53;2.47;;;0.17;;
84009;SDS011;74073;51.482;4.302;2024-02-23T06:49:19;4.03;;;0.10;;
84009;SDS011;74073;51.482;4.302;2024-02-23T06:51:46;3.00;;;0.82;;
84009;SDS011;74073;51.482;4.302;2024-02-23T06:54:17;3.97;;;0.10;;
84009;SDS011;74073;51.482;4.302;2024-02-23T06:56:43;12.32;;;3.33;;
84009;SDS011;74073;51.482;4.302;2024-02-23T06:59:10;6.78;;;0.77;;
84009;SDS011;74073;51.482;4.302;2024-02-23T07:01:47;7.00;;;0.77;;
84009;SDS011;74073;51.482;4.302;2024-02-23T07:04:13;3.05;;;0.40;;
84009;SDS011;74073;51.482;4.302;2024-02-23T07:06:39;4.30;;;0.22;;
84009;SDS011;74073;51.482;4.302;2024-02-23T07:09:06;4.50;;;0.38;;
84009;SDS011;74073;51.482;4.302;2024-02-23T07:11:33;2.92;;;0.30;;
84009;SDS011;74073;51.482;4.302;2024-02-23T07:13:59;2.80;;;0.38;;
84009;SDS011;74073;51.482;4.302;2024-02-23T07:16:26;5.68;;;0.40;;
84009;SDS011;74073;51.482;4.302;2024-02-23T07:18:52;4.28;;;0.40;;
84009;SDS011;74073;51.482;4.302;2024-02-23T07:21:19;4.18;;;0.25;;
84009;SDS011;74073;51.482;4.302;2024-02-23T07:23:46;3.38;;;0.20;;
84009;SDS011;74073;51.482;4.302;2024-02-23T07:26:12;7.38;;;0.30;;
84009;SDS011;74073;51.482;4.302;2024-02-23T07:28:38;3.42;;;0.17;;
84009;SDS011;74073;51.482;4.302;2024-02-23T07:31:05;2.22;;;0.20;;
84009;SDS011;74073;51.482;4.302;2024-02-23T07:33:31;1.98;;;0.20;;
84009;SDS011;74073;51.482;4.302;2024-02-23T07:35:58;2.97;;;0.15;;
84009;SDS011;74073;51.482;4.302;2024-02-23T07:38:24;2.03;;;0.10;;
84009;SDS011;74073;51.482;4.302;2024-02-23T07:40:51;4.03;;;0.40;;
84009;SDS011;74073;51.482;4.302;2024-02-23T07:43:17;2.50;;;0.10;;
84009;SDS011;74073;51.482;4.302;2024-02-23T07:45:43;3.65;;;0.13;;
84009;SDS011;74073;51.482;4.302;2024-02-23T07:48:10;3.90;;;0.30;;
84009;SDS011;74073;51.482;4.302;2024-02-23T07:50:36;2.15;;;0.32;;
84009;SDS011;74073;51.482;4.302;2024-02-23T07:53:03;3.15;;;0.10;;
84009;SDS011;74073;51.482;4.302;2024-02-23T07:55:29;4.15;;;0.28;;
84009;SDS011;74073;51.482;4.302;2024-02-23T07:57:55;2.50;;;0.20;;
84009;SDS011;74073;51.482;4.302;2024-02-23T08:00:26;2.75;;;1.15;;
84009;SDS011;74073;51.482;4.302;2024-02-23T08:02:53;1.75;;;0.20;;
84009;SDS011;74073;51.482;4.302;2024-02-23T08:05:22;1.75;;;0.10;;
84009;SDS011;74073;51.482;4.302;2024-02-23T08:07:49;1.60;;;0.20;;
84009;SDS011;74073;51.482;4.302;2024-02-23T08:10:15;1.98;;;0.10;;
84009;SDS011;74073;51.482;4.302;2024-02-23T08:12:41;2.53;;;0.10;;
84009;SDS011;74073;51.482;4.302;2024-02-23T08:15:07;2.15;;;0.17;;
84009;SDS011;74073;51.482;4.302;2024-02-23T08:17:34;3.13;;;0.30;;
84009;SDS011;74073;51.482;4.302;2024-02-23T08:20:01;3.58;;;0.32;;
84009;SDS011;74073;51.482;4.302;2024-02-23T08:22:30;5.40;;;0.32;;
84009;SDS011;74073;51.482;4.302;2024-02-23T08:24:56;5.25;;;0.17;;
84009;SDS011;74073;51.482;4.302;2024-02-23T08:27:22;7.10;;;0.30;;
84009;SDS011;74073;51.482;4.302;2024-02-23T08:29:49;4.07;;;0.10;;
84009;SDS011;74073;51.482;4.302;2024-02-23T08:32:15;2.35;;;0.10;;
84009;SDS011;74073;51.482;4.302;2024-02-23T08:34:43;2.58;;;0.10;;
84009;SDS011;74073;51.482;4.302;2024-02-23T08:37:09;3.40;;;0.20;;
84009;SDS011;74073;51.482;4.302;2024-02-23T08:39:35;2.20;;;0.20;;
84009;SDS011;74073;51.482;4.302;2024-02-23T08:42:02;1.38;;;0.10;;
84009;SDS011;74073;51.482;4.302;2024-02-23T08:44:28;1.90;;;0.10;;
84009;SDS011;74073;51.482;4.302;2024-02-23T08:46:54;1.92;;;0.10;;
84009;SDS011;74073;51.482;4.302;2024-02-23T08:49:21;2.17;;;0.10;;
84009;SDS011;74073;51.482;4.302;2024-02-23T08:51:48;2.92;;;0.20;;
84009;SDS011;74073;51.482;4.302;2024-02-23T08:54:14;2.97;;;0.85;;
84009;SDS011;74073;51.482;4.302;2024-02-23T08:56:41;4.47;;;0.20;;
84009;SDS011;74073;51.482;4.302;2024-02-23T08:59:08;2.92;;;0.30;;
84009;SDS011;74073;51.482;4.302;2024-02-23T09:01:35;2.55;;;0.10;;
84009;SDS011;74073;51.482;4.302;2024-02-23T09:04:01;1.92;;;0.30;;
84009;SDS011;74073;51.482;4.302;2024-02-23T09:06:28;1.90;;;0.10;;
84009;SDS011;74073;51.482;4.302;2024-02-23T09:08:55;3.53;;;0.10;;
84009;SDS011;74073;51.482;4.302;2024-02-23T09:11:22;2.97;;;0.10;;
84009;SDS011;74073;51.482;4.302;2024-02-23T09:13:48;3.22;;;0.25;;
84009;SDS011;74073;51.482;4.302;2024-02-23T09:16:15;3.58;;;0.30;;
84009;SDS011;74073;51.482;4.302;2024-02-23T09:18:41;1.95;;;0.43;;
84009;SDS011;74073;51.482;4.302;2024-02-23T09:21:07;3.13;;;0.43;;
84009;SDS011;74073;51.482;4.302;2024-02-23T09:23:33;1.13;;;0.10;;
84009;SDS011;74073;51.482;4.302;2024-02-23T09:26:00;1.42;;;0.20;;
84009;SDS011;74073;51.482;4.302;2024-02-23T09:28:26;1.77;;;0.20;;
84009;SDS011;74073;51.482;4.302;2024-02-23T09:30:53;2.58;;;0.10;;
84009;SDS011;74073;51.482;4.302;2024-02-23T09:33:19;1.60;;;0.10;;
84009;SDS011;74073;51.482;4.302;2024-02-23T09:35:46;1.63;;;0.30;;
84009;SDS011;74073;51.482;4.302;2024-02-23T09:38:12;2.10;;;0.10;;
84009;SDS011;74073;51.482;4.302;2024-02-23T09:40:39;1.63;;;0.30;;
84009;SDS011;74073;51.482;4.302;2024-02-23T09:43:05;3.00;;;0.30;;
84009;SDS011;74073;51.482;4.302;2024-02-23T09:45:36;1.88;;;0.10;;
84009;SDS011;74073;51.482;4.302;2024-02-23T09:48:03;2.45;;;0.15;;
84009;SDS011;74073;51.482;4.302;2024-02-23T09:50:33;1.83;;;0.20;;
84009;SDS011;74073;51.482;4.302;2024-02-23T09:53:01;2.00;;;0.10;;
84009;SDS011;74073;51.482;4.302;2024-02-23T09:55:29;2.08;;;0.10;;
84009;SDS011;74073;51.482;4.302;2024-02-23T09:57:57;2.40;;;0.30;;
84009;SDS011;74073;51.482;4.302;2024-02-23T10:00:28;2.72;;;0.13;;
84009;SDS011;74073;51.482;4.302;2024-02-23T10:02:55;1.77;;;0.30;;
84009;SDS011;74073;51.482;4.302;2024-02-23T10:05:29;2.83;;;0.43;;
84009;SDS011;74073;51.482;4.302;2024-02-23T10:07:57;1.98;;;0.32;;
84009;SDS011;74073;51.482;4.302;2024-02-23T10:10:33;5.40;;;0.43;;
84009;SDS011;74073;51.482;4.302;2024-02-23T10:12:59;4.50;;;0.22;;
84009;SDS011;74073;51.482;4.302;2024-02-23T10:15:28;2.08;;;0.15;;
84009;SDS011;74073;51.482;4.302;2024-02-23T10:17:56;1.73;;;0.20;;
84009;SDS011;74073;51.482;4.302;2024-02-23T10:20:22;0.80;;;0.10;;
84009;SDS011;74073;51.482;4.302;2024-02-23T10:22:49;2.25;;;0.10;;
84009;SDS011;74073;51.482;4.302;2024-02-23T10:25:15;3.58;;;0.20;;
84009;SDS011;74073;51.482;4.302;2024-02-23T10:27:42;2.90;;;0.55;;
84009;SDS011;74073;51.482;4.302;2024-02-23T10:30:09;1.27;;;0.20;;
84009;SDS011;74073;51.482;4.302;2024-02-23T10:32:40;2.30;;;0.20;;
84009;SDS011;74073;51.482;4.302;2024-02-23T10:35:11;1.92;;;0.30;;
84009;SDS011;74073;51.482;4.302;2024-02-23T10:37:41;1.33;;;0.10;;
84009;SDS011;74073;51.482;4.302;2024-02-23T10:40:12;2.78;;;0.10;;
84009;SDS011;74073;51.482;4.302;2024-02-23T10:42:39;2.10;;;0.10;;
84009;SDS011;74073;51.482;4.302;2024-02-23T10:45:06;1.73;;;0.00;;
84009;SDS011;74073;51.482;4.302;2024-02-23T10:47:33;3.47;;;0.20;;
84009;SDS011;74073;51.482;4.302;2024-02-23T10:50:00;1.48;;;0.10;;
84009;SDS011;74073;51.482;4.302;2024-02-23T10:52:30;3.25;;;0.10;;
84009;SDS011;74073;51.482;4.302;2024-02-23T10:55:00;1.08;;;0.10;;
84009;SDS011;74073;51.482;4.302;2024-02-23T10:57:30;2.20;;;0.10;;
84009;SDS011;74073;51.482;4.302;2024-02-23T11:00:00;0.90;;;0.10;;
84009;SDS011;74073;51.482;4.302;2024-02-23T11:02:27;2.10;;;0.20;;
84009;SDS011;74073;51.482;4.302;2024-02-23T11:04:55;2.17;;;0.10;;
84009;SDS011;74073;51.482;4.302;2024-02-23T11:07:22;2.83;;;0.20;;
84009;SDS011;74073;51.482;4.302;2024-02-23T11:10:09;2.72;;;0.00;;
84009;SDS011;74073;51.482;4.302;2024-02-23T11:12:39;2.22;;;0.10;;
84009;SDS011;74073;51.482;4.302;2024-02-23T11:15:05;33.97;;;18.17;;
84009;SDS011;74073;51.482;4.302;2024-02-23T11:17:32;21.70;;;10.20;;
84009;SDS011;74073;51.482;4.302;2024-02-23T11:20:02;14.45;;;7.13;;
84009;SDS011;74073;51.482;4.302;2024-02-23T11:22:32;22.42;;;8.35;;
84009;SDS011;74073;51.482;4.302;2024-02-23T11:25:00;22.60;;;8.85;;
84009;SDS011;74073;51.482;4.302;2024-02-23T11:27:30;17.45;;;6.28;;
84009;SDS011;74073;51.482;4.302;2024-02-23T11:30:16;16.80;;;6.78;;
84009;SDS011;74073;51.482;4.302;2024-02-23T11:32:46;12.23;;;4.95;;
84009;SDS011;74073;51.482;4.302;2024-02-23T11:35:17;12.90;;;4.55;;
84009;SDS011;74073;51.482;4.302;2024-02-23T11:37:56;12.45;;;3.70;;
84009;SDS011;74073;51.482;4.302;2024-02-23T11:40:32;14.45;;;3.47;;
84009;SDS011;74073;51.482;4.302;2024-02-23T11:42:58;10.20;;;3.13;;
84009;SDS011;74073;51.482;4.302;2024-02-23T11:45:29;8.30;;;2.38;;
84009;SDS011;74073;51.482;4.302;2024-02-23T11:47:56;6.03;;;2.17;;
84009;SDS011;74073;51.482;4.302;2024-02-23T11:50:22;8.90;;;2.05;;
84009;SDS011;74073;51.482;4.302;2024-02-23T11:52:48;6.35;;;1.20;;
84009;SDS011;74073;51.482;4.302;2024-02-23T11:55:19;7.10;;;0.93;;
84009;SDS011;74073;51.482;4.302;2024-02-23T11:57:47;5.47;;;0.65;;
84009;SDS011;74073;51.482;4.302;2024-02-23T12:00:14;6.35;;;0.90;;
84009;SDS011;74073;51.482;4.302;2024-02-23T12:02:40;4.35;;;0.68;;
84009;SDS011;74073;51.482;4.302;2024-02-23T12:05:07;4.10;;;0.70;;
84009;SDS011;74073;51.482;4.302;2024-02-23T12:07:36;3.72;;;0.68;;
84009;SDS011;74073;51.482;4.302;2024-02-23T12:10:02;4.53;;;0.35;;
84009;SDS011;74073;51.482;4.302;2024-02-23T12:12:29;3.40;;;0.30;;
84009;SDS011;74073;51.482;4.302;2024-02-23T12:14:55;4.28;;;0.32;;
84009;SDS011;74073;51.482;4.302;2024-02-23T12:17:21;3.17;;;0.30;;
84009;SDS011;74073;51.482;4.302;2024-02-23T12:19:51;3.25;;;0.25;;
84009;SDS011;74073;51.482;4.302;2024-02-23T12:22:24;3.15;;;0.35;;
84009;SDS011;74073;51.482;4.302;2024-02-23T12:24:50;2.55;;;0.30;;
84009;SDS011;74073;51.482;4.302;2024-02-23T12:27:17;3.25;;;0.20;;
84009;SDS011;74073;51.482;4.302;2024-02-23T12:29:53;5.72;;;0.93;;
84009;SDS011;74073;51.482;4.302;2024-02-23T12:32:20;5.20;;;0.32;;
84009;SDS011;74073;51.482;4.302;2024-02-23T12:34:46;3.47;;;0.25;;
84009;SDS011;74073;51.482;4.302;2024-02-23T12:37:16;2.67;;;0.30;;
84009;SDS011;74073;51.482;4.302;2024-02-23T12:39:47;5.88;;;0.30;;
84009;SDS011;74073;51.482;4.302;2024-02-23T12:42:14;5.07;;;0.30;;
84009;SDS011;74073;51.482;4.302;2024-02-23T12:44:40;3.75;;;0.20;;
84009;SDS011;74073;51.482;4.302;2024-02-23T12:47:06;4.45;;;0.30;;
84009;SDS011;74073;51.482;4.302;2024-02-23T12:49:33;4.05;;;0.30;;
84009;SDS011;74073;51.482;4.302;2024-02-23T12:51:59;2.78;;;0.20;;
84009;SDS011;74073;51.482;4.302;2024-02-23T12:54:25;5.80;;;0.43;;
84009;SDS011;74073;51.482;4.302;2024-02-23T12:56:52;5.28;;;0.40;;
84009;SDS011;74073;51.482;4.302;2024-02-23T12:59:18;4.40;;;0.40;;
84009;SDS011;74073;51.482;4.302;2024-02-23T13:01:44;3.20;;;0.75;;
84009;SDS011;74073;51.482;4.302;2024-02-23T13:04:10;3.83;;;0.38;;
84009;SDS011;74073;51.482;4.302;2024-02-23T13:06:38;3.53;;;0.45;;
84009;SDS011;74073;51.482;4.302;2024-02-23T13:09:05;3.33;;;0.60;;
84009;SDS011;74073;51.482;4.302;2024-02-23T13:11:36;5.75;;;0.75;;
84009;SDS011;74073;51.482;4.302;2024-02-23T13:14:04;4.65;;;0.20;;
84009;SDS011;74073;51.482;4.302;2024-02-23T13:16:30;3.42;;;0.32;;
84009;SDS011;74073;51.482;4.302;2024-02-23T13:18:56;4.20;;;0.32;;
84009;SDS011;74073;51.482;4.302;2024-02-23T13:21:22;2.05;;;0.40;;
84009;SDS011;74073;51.482;4.302;2024-02-23T13:23:52;2.00;;;0.32;;
84009;SDS011;74073;51.482;4.302;2024-02-23T13:26:18;3.22;;;0.30;;
84009;SDS011;74073;51.482;4.302;2024-02-23T13:28:44;3.92;;;0.20;;
84009;SDS011;74073;51.482;4.302;2024-02-23T13:31:11;4.43;;;0.22;;
84009;SDS011;74073;51.482;4.302;2024-02-23T13:33:38;3.20;;;0.40;;
84009;SDS011;74073;51.482;4.302;2024-02-23T13:36:05;2.53;;;0.20;;
84009;SDS011;74073;51.482;4.302;2024-02-23T13:38:32;2.22;;;0.30;;
84009;SDS011;74073;51.482;4.302;2024-02-23T13:41:03;2.15;;;0.20;;
84009;SDS011;74073;51.482;4.302;2024-02-23T13:43:30;4.93;;;0.20;;
84009;SDS011;74073;51.482;4.302;2024-02-23T13:45:56;3.40;;;0.30;;
84009;SDS011;74073;51.482;4.302;2024-02-23T13:48:22;4.10;;;0.43;;
84009;SDS011;74073;51.482;4.302;2024-02-23T13:50:49;1.98;;;0.20;;
84009;SDS011;74073;51.482;4.302;2024-02-23T13:53:15;4.00;;;0.43;;
84009;SDS011;74073;51.482;4.302;2024-02-23T13:55:41;2.92;;;0.38;;
84009;SDS011;74073;51.482;4.302;2024-02-23T13:58:09;2.45;;;0.28;;
84009;SDS011;74073;51.482;4.302;2024-02-23T14:00:35;3.03;;;0.10;;
84009;SDS011;74073;51.482;4.302;2024-02-23T14:03:01;2.80;;;0.10;;
84009;SDS011;74073;51.482;4.302;2024-02-23T14:05:28;2.30;;;0.10;;
84009;SDS011;74073;51.482;4.302;2024-02-23T14:07:54;2.67;;;0.20;;
84009;SDS011;74073;51.482;4.302;2024-02-23T14:10:20;3.60;;;0.30;;
84009;SDS011;74073;51.482;4.302;2024-02-23T14:12:46;2.42;;;0.25;;
84009;SDS011;74073;51.482;4.302;2024-02-23T14:15:15;2.38;;;0.20;;
84009;SDS011;74073;51.482;4.302;2024-02-23T14:17:42;2.13;;;0.15;;
84009;SDS011;74073;51.482;4.302;2024-02-23T14:20:09;3.10;;;0.20;;
84009;SDS011;74073;51.482;4.302;2024-02-23T14:22:35;1.42;;;0.10;;
84009;SDS011;74073;51.482;4.302;2024-02-23T14:25:01;2.88;;;0.10;;
84009;SDS011;74073;51.482;4.302;2024-02-23T14:27:27;2.08;;;0.13;;
84009;SDS011;74073;51.482;4.302;2024-02-23T14:29:53;1.80;;;0.10;;
84009;SDS011;74073;51.482;4.302;2024-02-23T14:32:20;1.60;;;0.13;;
84009;SDS011;74073;51.482;4.302;2024-02-23T14:34:47;3.10;;;0.10;;
84009;SDS011;74073;51.482;4.302;2024-02-23T14:37:14;1.77;;;0.10;;
84009;SDS011;74073;51.482;4.302;2024-02-23T14:39:41;1.88;;;0.10;;
84009;SDS011;74073;51.482;4.302;2024-02-23T14:42:07;2.85;;;0.32;;
84009;SDS011;74073;51.482;4.302;2024-02-23T14:44:34;1.42;;;0.10;;
84009;SDS011;74073;51.482;4.302;2024-02-23T14:47:00;2.65;;;0.13;;
84009;SDS011;74073;51.482;4.302;2024-02-23T14:49:26;2.30;;;0.20;;